createdAt,value
2022-12-04T00:09:38.843Z,-23.8
2022-12-04T00:20:17.092Z,-24.3
2022-12-04T00:25:41.047Z,-24
2022-12-04T00:36:15.356Z,-24.7
2022-12-04T00:41:34.579Z,-23.4
2022-12-04T00:52:14.097Z,-24.3
2022-12-04T00:57:32.147Z,-23.9
2022-12-04T01:02:51.500Z,-24
2022-12-04T01:08:11.362Z,-23.7
2022-12-04T01:18:50.474Z,-24.6
2022-12-04T01:24:08.661Z,-23.9
2022-12-04T01:29:28.204Z,-23.8
2022-12-04T01:34:47.498Z,-23.5
2022-12-04T01:40:06.838Z,-23.7
2022-12-04T01:45:25.838Z,-23.5
2022-12-04T01:50:45.116Z,-27.9
2022-12-04T02:01:24.029Z,-23.7
2022-12-04T02:06:42.501Z,-23.8
2022-12-04T02:17:20.358Z,-23.7
2022-12-04T02:22:39.647Z,-23.9
2022-12-04T02:27:59.003Z,-23.8
2022-12-04T02:33:17.981Z,-23.7
2022-12-04T02:38:36.906Z,-24.1
2022-12-04T02:43:55.885Z,-28
2022-12-04T02:49:15.309Z,-23.6
2022-12-04T02:54:34.261Z,-28.2
2022-12-04T02:59:53.477Z,-23.7
2022-12-04T03:05:12.344Z,-23.8
2022-12-04T03:10:31.570Z,-24
2022-12-04T03:15:50.822Z,-23.4
2022-12-04T03:26:29.555Z,-23.9
2022-12-04T03:31:49.693Z,-23.6
2022-12-04T03:42:26.721Z,-23.7
2022-12-04T03:53:04.859Z,-26.2
2022-12-04T03:58:23.680Z,-28.3
2022-12-04T04:09:02.294Z,-23.9
2022-12-04T04:14:21.289Z,-24
2022-12-04T04:19:40.768Z,-23.6
2022-12-04T04:24:59.640Z,-23.9
2022-12-04T04:41:22.306Z,-24.4
2022-12-04T04:52:00.514Z,-24
2022-12-04T04:57:19.934Z,-23.8
2022-12-04T05:02:39.568Z,-23.9
2022-12-04T05:07:59.640Z,-23.9
2022-12-04T05:18:37.865Z,-23.8
2022-12-04T05:23:57.433Z,-23.7
2022-12-04T05:29:16.988Z,-24.2
2022-12-04T05:34:35.926Z,-24
2022-12-04T05:39:55.328Z,-23.4
2022-12-04T05:45:14.830Z,-24.9
2022-12-04T05:50:33.648Z,-23.6
2022-12-04T06:01:11.783Z,-23.9
2022-12-04T06:06:30.776Z,-23.8
2022-12-04T06:17:08.640Z,-23.6
2022-12-04T06:22:28.511Z,-24.1
2022-12-04T06:27:46.618Z,-24.1
2022-12-04T06:33:06.580Z,-28.8
2022-12-04T06:43:45.103Z,-23.8
2022-12-04T06:49:04.469Z,-23.8
2022-12-04T06:59:42.733Z,-24.2
2022-12-04T07:10:21.948Z,-24
2022-12-04T07:15:41.145Z,-24.6
2022-12-04T07:20:59.945Z,-24.4
2022-12-04T07:26:19.650Z,-29.1
2022-12-04T07:31:39.157Z,-24.1
2022-12-04T07:42:22.602Z,-23.7
2022-12-04T07:47:37.633Z,-22.7
2022-12-04T07:52:55.673Z,-21.7
2022-12-04T07:58:14.709Z,-19.2
2022-12-04T08:08:53.082Z,-19.7
2022-12-04T08:14:12.547Z,-19.6
2022-12-04T08:24:51.299Z,-15.7
2022-12-04T08:30:10.335Z,-17.79
2022-12-04T08:35:29.797Z,-17.29
2022-12-04T08:40:49.520Z,-15.4
2022-12-04T08:46:09.116Z,-14
2022-12-04T08:51:29.508Z,-13.9
2022-12-04T08:56:49.220Z,-11.9
2022-12-04T09:07:26.330Z,-7.4
2022-12-04T09:12:54.905Z,-0.9
2022-12-04T09:23:24.057Z,-8.2
2022-12-04T09:28:44.438Z,-9.7
2022-12-04T09:34:02.886Z,-8.6
2022-12-04T09:39:21.762Z,-6.1
2022-12-04T09:44:41.269Z,-10.3
2022-12-04T09:50:00.920Z,-9.8
2022-12-04T09:55:20.271Z,-11.7
2022-12-04T10:05:59.624Z,-8.2
2022-12-04T10:11:18.688Z,-11.2
2022-12-04T10:16:38.621Z,-8.5
2022-12-04T10:21:57.794Z,-7.6
2022-12-04T10:32:36.973Z,-9
2022-12-04T10:37:55.252Z,-10.1
2022-12-04T10:43:14.561Z,-8.7
2022-12-04T10:48:33.607Z,-8.1
2022-12-04T10:53:53.972Z,-6.5
2022-12-04T11:04:31.303Z,-7.3
2022-12-04T11:09:50.091Z,-7.2
2022-12-04T11:15:09.849Z,-6.4
2022-12-04T11:25:49.968Z,-8.7
2022-12-04T11:31:09.565Z,-5.7
2022-12-04T11:36:27.683Z,-5.6
2022-12-04T11:41:46.471Z,-7.7
2022-12-04T11:47:05.689Z,-7.6
2022-12-04T11:52:25.991Z,-7
2022-12-04T11:57:44.830Z,-7.3
2022-12-04T12:08:23.201Z,-8.89
2022-12-04T12:13:42.678Z,-10.4
2022-12-04T12:24:21.964Z,-12.5
2022-12-04T12:29:40.606Z,-14
2022-12-04T12:35:00.194Z,-14.3
2022-12-04T12:40:19.751Z,-15.1
2022-12-04T12:45:39.258Z,-13.6
2022-12-04T12:51:15.293Z,-12.1
2022-12-04T12:56:18.530Z,-12.5
2022-12-04T13:06:57.206Z,-12.9
2022-12-04T13:12:16.040Z,-13.8
2022-12-04T13:17:35.724Z,-13.9
2022-12-04T13:22:55.119Z,-14.9
2022-12-04T13:28:13.990Z,-15.8
2022-12-04T13:33:33.195Z,-19.1
2022-12-04T13:38:56.545Z,-19.29
2022-12-04T13:49:31.139Z,-21.8
2022-12-04T13:54:49.938Z,-18.29
2022-12-04T14:00:09.239Z,-20.6
2022-12-04T14:05:28.786Z,-21.5
2022-12-04T14:10:47.643Z,-22.8
2022-12-04T14:16:07.639Z,-23
2022-12-04T14:21:27.266Z,-23.8
2022-12-04T14:32:05.774Z,-24.3
2022-12-04T14:37:24.273Z,-24.5
2022-12-04T14:42:43.733Z,-24.5
2022-12-04T14:48:03.345Z,-25
2022-12-04T14:58:42.061Z,-23.8
2022-12-04T15:04:00.927Z,-23.9
2022-12-04T15:14:39.888Z,-23.7
2022-12-04T15:19:59.322Z,-23.9
2022-12-04T15:30:37.462Z,-24
2022-12-04T15:41:21.303Z,-24
2022-12-04T15:46:36.422Z,-23.9
2022-12-04T15:57:14.266Z,-23.9
2022-12-04T16:02:33.798Z,-23.7
2022-12-04T16:07:53.522Z,-23.4
2022-12-04T16:13:12.796Z,-24.1
2022-12-04T16:18:32.432Z,-23.9
2022-12-04T16:23:51.969Z,-24
2022-12-04T16:29:11.561Z,-24.2
2022-12-04T16:39:50.052Z,-24.4
2022-12-04T16:45:09.347Z,-24.2
2022-12-04T16:55:47.131Z,-23.9
2022-12-04T17:06:25.812Z,-23.7
2022-12-04T17:11:45.302Z,-23.8
2022-12-04T17:17:04.983Z,-23.7
2022-12-04T17:22:23.922Z,-24
2022-12-04T17:27:43.265Z,-23.6
2022-12-04T17:38:22.288Z,-24.1
2022-12-04T17:43:41.705Z,-23.8
2022-12-04T17:49:06.749Z,-24.7
2022-12-04T17:54:21.570Z,-23.9
2022-12-04T17:59:40.647Z,-23.8
2022-12-04T18:05:00.154Z,-24.4
2022-12-04T18:10:18.705Z,-23.9
2022-12-04T18:15:37.916Z,-23.8
2022-12-04T18:20:57.556Z,-23.8
2022-12-04T18:31:36.693Z,-23.9
2022-12-04T18:36:56.374Z,-23.9
2022-12-04T18:42:15.823Z,-23.7
2022-12-04T18:47:34.961Z,-23.6
2022-12-04T18:58:13.766Z,-24
2022-12-04T19:03:33.023Z,-24.5
2022-12-04T19:14:17.928Z,-24.1
2022-12-04T19:24:51.064Z,-24.4
2022-12-04T19:30:10.123Z,-24.3
2022-12-04T19:35:29.758Z,-24.2
2022-12-04T19:40:48.579Z,-23.6
2022-12-04T19:46:08.392Z,-23.7
2022-12-04T19:51:27.231Z,-24.9
2022-12-04T19:56:46.056Z,-24.9
2022-12-04T20:02:05.668Z,-24.1
2022-12-04T20:07:24.610Z,-28.1
2022-12-04T20:13:58.800Z,-23.7
2022-12-04T20:18:04.378Z,-23.8
2022-12-04T20:23:22.202Z,-23.7
2022-12-04T20:28:40.907Z,-23.9
2022-12-04T20:34:00.450Z,-23.8
2022-12-04T20:39:20.061Z,-23.5
2022-12-04T20:44:39.438Z,-24.4
2022-12-04T20:49:59.149Z,-24.7
2022-12-04T20:55:18.206Z,-23.9
2022-12-04T21:00:36.672Z,-24.4
2022-12-04T21:05:56.221Z,-26.5
2022-12-04T21:11:15.737Z,-24
2022-12-04T21:16:35.469Z,-24.1
2022-12-04T21:21:55.250Z,-24.2
2022-12-04T21:27:19.051Z,-23.5
2022-12-04T21:32:32.849Z,-24
2022-12-04T21:37:51.983Z,-23.8
2022-12-04T21:43:11.607Z,-24.2
2022-12-04T21:48:30.903Z,-23.7
2022-12-04T21:53:50.377Z,-25.2
2022-12-04T21:59:09.817Z,-23.8
2022-12-04T22:04:28.981Z,-23.8
2022-12-04T22:09:48.623Z,-24
2022-12-04T22:15:07.797Z,-24.5
2022-12-04T22:20:51.683Z,-24.4
2022-12-04T22:26:10.931Z,-24.9
2022-12-04T22:31:29.955Z,-23.8
2022-12-04T22:36:50.099Z,-24.5
2022-12-04T22:42:09.506Z,-24.1
2022-12-04T22:47:29.301Z,-23.7
2022-12-04T22:52:48.707Z,-24
2022-12-04T22:58:08.010Z,-24
2022-12-04T23:03:26.985Z,-24
2022-12-04T23:08:45.969Z,-24.2
2022-12-04T23:14:05.429Z,-24.3
2022-12-04T23:19:25.152Z,-24
2022-12-04T23:24:44.889Z,-23.8
2022-12-04T23:30:04.260Z,-24.1
2022-12-04T23:35:23.691Z,-23.5
2022-12-04T23:40:42.961Z,-24.1
2022-12-04T23:46:07.410Z,-24.1
2022-12-04T23:51:22.057Z,-23.5
2022-12-04T23:56:41.825Z,-24.3
